createdAt,value
2022-10-19T00:05:32.692Z,6.5
2022-10-19T00:25:44.309Z,6.3
2022-10-19T00:35:39.905Z,6.2
2022-10-19T00:45:42.076Z,6.1
2022-10-19T00:55:51.202Z,6.1
2022-10-19T01:15:49.037Z,5.9
2022-10-19T01:25:51.394Z,5.8
2022-10-19T01:35:53.173Z,5.7
2022-10-19T01:45:55.512Z,5.7
2022-10-19T01:55:57.152Z,5.4
2022-10-19T02:05:59.484Z,5.5
2022-10-19T02:16:01.457Z,5.4
2022-10-19T02:26:03.920Z,5.4
2022-10-19T02:46:08.106Z,5.2
2022-10-19T02:56:10.102Z,5.1
2022-10-19T03:06:12.575Z,4.9
2022-10-19T03:16:14.666Z,4.9
2022-10-19T03:26:16.926Z,4.8
2022-10-19T03:36:19.451Z,4.7
2022-10-19T03:46:21.753Z,4.6
2022-10-19T04:06:26.466Z,4.2
2022-10-19T04:16:28.505Z,4.2
2022-10-19T04:26:30.903Z,3.9
2022-10-19T04:36:33.176Z,3.8
2022-10-19T04:46:34.877Z,3.8
2022-10-19T04:56:36.823Z,4
2022-10-19T05:06:39.036Z,4.1
2022-10-19T05:16:40.816Z,4.2
2022-10-19T05:26:43.050Z,4.4
2022-10-19T05:36:44.899Z,4.5
2022-10-19T05:46:47.077Z,4.5
2022-10-19T05:56:49.081Z,4.4
2022-10-19T06:06:51.003Z,4.5
2022-10-19T06:16:52.716Z,4.8
2022-10-19T06:26:55.175Z,5.1
2022-10-19T06:46:59.466Z,5
2022-10-19T07:17:06.270Z,5
2022-10-19T07:37:11.239Z,5.5
2022-10-19T07:47:13.793Z,5.7
2022-10-19T07:57:15.514Z,5.9
2022-10-19T08:07:17.724Z,6.3
2022-10-19T08:17:19.742Z,6.7
2022-10-19T08:27:21.460Z,7
2022-10-19T08:37:39.874Z,7.4
2022-10-19T08:47:26.094Z,7.8
2022-10-19T08:57:28.106Z,8.3
2022-10-19T09:07:30.062Z,8.6
2022-10-19T09:27:34.221Z,9.6
2022-10-19T09:47:38.788Z,10.9
2022-10-19T09:57:40.615Z,11.7
2022-10-19T10:07:42.632Z,12.2
2022-10-19T10:17:45.255Z,12.4
2022-10-19T10:37:49.645Z,12.6
2022-10-19T10:47:51.703Z,12.8
2022-10-19T10:57:53.669Z,12.9
2022-10-19T11:07:56.245Z,13
2022-10-19T11:17:58.642Z,13.4
2022-10-19T11:28:01.250Z,13.5
2022-10-19T11:38:20.557Z,13.6
2022-10-19T11:58:08.320Z,13.5
2022-10-19T12:18:12.921Z,13.6
2022-10-19T12:38:17.200Z,13.7
2022-10-19T13:08:22.632Z,14.3
2022-10-19T13:48:31.573Z,14.6
2022-10-19T14:08:35.604Z,14.2
2022-10-19T14:28:39.458Z,13.7
2022-10-19T14:38:48.788Z,13.5
2022-10-19T14:48:51.398Z,13.6
2022-10-19T14:58:53.788Z,13.6
2022-10-19T15:29:01.320Z,13.1
2022-10-19T15:39:11.903Z,12.9
2022-10-19T15:49:05.619Z,12.7
2022-10-19T15:59:07.608Z,12.4
2022-10-19T17:29:27.773Z,10.6
2022-10-19T17:39:30.225Z,10.5
2022-10-19T17:49:32.331Z,10.4
2022-10-19T17:59:40.621Z,10.3
2022-10-19T18:09:37.344Z,10.2
2022-10-19T18:19:39.284Z,10.1
2022-10-19T19:19:52.485Z,9.3
2022-10-19T20:20:05.759Z,8.8
2022-10-19T21:30:21.184Z,8
2022-10-19T21:50:25.064Z,7.9
2022-10-19T23:20:45.392Z,6.9
2022-10-19T23:30:47.787Z,6.8
2022-10-19T23:40:49.972Z,6.7
